Terminal Aerodrome Forecast
Issued by NWS Lake Charles, LA

Home | Current Version | Previous Version | Text Only | Print | Product List | Glossary On
Versions: 1 2 3 4 5 6 7 8 9 10 11 12 13 14 15 16 17 18 19 20
469
FTUS44 KLCH 280520
TAFLCH
TAF
KLCH 280520Z 2806/2906 04006KT P6SM BKN120
     FM280900 05008KT P6SM VCSH SCT025 BKN120
      TEMPO 2810/2814 5SM BR
     FM281600 08010KT P6SM VCTS FEW015CB SCT030 BKN050 PROB30
      2818/2824 3SM TSRA BKN015CB OVC030
     FM290100 05007KT P6SM FEW050 SCT100=

USA.gov is the U.S. government's official web portal to all federal, state and local government web resources and services.